createdAt,value
2022-11-12T00:08:19.074Z,5.47
2022-11-12T00:18:40.817Z,4.87
2022-11-12T00:29:04.073Z,5.13
2022-11-12T00:39:25.932Z,5.10
2022-11-12T00:49:49.012Z,4.93
2022-11-12T01:00:17.393Z,5.70
2022-11-12T01:10:40.047Z,5.00
2022-11-12T01:21:03.024Z,5.47
2022-11-12T01:31:28.328Z,4.53
2022-11-12T01:41:50.235Z,5.17
2022-11-12T01:52:18.516Z,4.80
2022-11-12T02:02:41.478Z,4.33
2022-11-12T02:13:22.114Z,6.33
2022-11-12T02:23:45.263Z,4.67
2022-11-12T02:34:06.756Z,4.97
2022-11-12T02:44:31.298Z,4.10
2022-11-12T02:54:53.450Z,4.23
2022-11-12T03:05:16.279Z,4.30
2022-11-12T03:15:37.843Z,4.60
2022-11-12T03:26:04.836Z,4.23
2022-11-12T03:36:26.761Z,3.60
2022-11-12T03:46:50.042Z,2.80
2022-11-12T03:57:12.490Z,3.80
2022-11-12T04:07:52.922Z,2.70
2022-11-12T04:18:32.285Z,3.40
2022-11-12T04:29:12.934Z,3.33
2022-11-12T04:39:34.902Z,3.63
2022-11-12T04:49:57.936Z,3.23
2022-11-12T05:00:20.031Z,3.77
2022-11-12T05:10:43.214Z,3.17
2022-11-12T05:21:25.200Z,3.33
2022-11-12T05:31:48.666Z,2.60
2022-11-12T05:42:13.497Z,2.50
2022-11-12T05:52:37.384Z,3.03
2022-11-12T06:02:59.424Z,2.20
2022-11-12T06:13:24.232Z,3.20
2022-11-12T06:23:46.715Z,2.73
2022-11-12T06:34:10.061Z,2.63
2022-11-12T06:44:31.534Z,2.90
2022-11-12T06:54:54.960Z,2.90
2022-11-12T07:05:16.800Z,3.57
2022-11-12T07:15:39.954Z,4.30
2022-11-12T07:26:04.096Z,3.17
2022-11-12T07:36:28.018Z,2.83
2022-11-12T07:46:49.570Z,3.00
2022-11-12T07:57:12.930Z,4.10
2022-11-12T08:07:34.553Z,3.27
2022-11-12T08:17:57.523Z,2.60
2022-11-12T08:28:19.156Z,2.90
2022-11-12T08:38:43.059Z,2.67
2022-11-12T08:49:07.145Z,2.43
2022-11-12T08:59:30.439Z,2.33
2022-11-12T09:09:52.092Z,3.43
2022-11-12T09:20:15.807Z,3.00
2022-11-12T09:30:38.305Z,2.83
2022-11-12T09:41:16.249Z,2.33
2022-11-12T09:51:42.659Z,2.93
2022-11-12T10:02:26.273Z,2.83
2022-11-12T10:13:07.008Z,2.57
2022-11-12T10:23:42.368Z,2.50
2022-11-12T10:34:16.117Z,1.90
2022-11-12T10:44:40.859Z,1.83
2022-11-12T10:55:08.860Z,1.60
2022-11-12T11:05:35.629Z,1.60
2022-11-12T11:16:01.917Z,1.70
2022-11-12T11:26:33.950Z,1.77
2022-11-12T11:37:02.594Z,1.40
2022-11-12T11:47:57.686Z,1.60
2022-11-12T11:58:40.762Z,1.33
2022-11-12T12:09:24.904Z,1.27
2022-11-12T12:19:58.757Z,1.17
2022-11-12T12:30:24.917Z,1.47
2022-11-12T12:40:50.130Z,1.50
2022-11-12T12:51:14.288Z,1.30
2022-11-12T13:01:37.485Z,2.13
2022-11-12T13:12:18.228Z,1.60
2022-11-12T13:22:52.577Z,1.70
2022-11-12T13:33:27.208Z,1.90
2022-11-12T13:43:49.904Z,1.63
2022-11-12T13:54:36.239Z,1.80
2022-11-12T14:04:58.780Z,1.70
2022-11-12T14:15:43.947Z,2.03
2022-11-12T14:26:05.681Z,1.90
2022-11-12T14:36:30.770Z,1.70
2022-11-12T14:46:55.837Z,2.07
2022-11-12T14:57:24.169Z,2.10
2022-11-12T15:07:55.217Z,1.80
2022-11-12T15:18:20.580Z,2.37
2022-11-12T15:28:42.448Z,1.90
2022-11-12T15:39:14.473Z,2.33
2022-11-12T15:49:36.173Z,2.27
2022-11-12T16:00:07.865Z,2.40
2022-11-12T16:10:30.477Z,2.40
2022-11-12T16:20:53.636Z,2.80
2022-11-12T16:31:15.941Z,3.30
2022-11-12T16:41:39.068Z,3.50
2022-11-12T16:52:00.690Z,3.03
2022-11-12T17:02:23.600Z,2.30
2022-11-12T17:12:49.245Z,2.50
2022-11-12T17:23:12.097Z,2.50
2022-11-12T17:33:34.624Z,2.80
2022-11-12T17:43:58.172Z,3.73
2022-11-12T17:54:20.000Z,5.90
2022-11-12T18:04:43.065Z,5.63
2022-11-12T18:15:05.275Z,5.40
2022-11-12T18:25:28.895Z,5.33
2022-11-12T18:36:01.464Z,5.70
2022-11-12T18:46:25.056Z,6.63
2022-11-12T18:56:47.887Z,7.47
2022-11-12T19:07:10.618Z,6.40
2022-11-12T19:17:32.926Z,8.13
2022-11-12T19:27:56.055Z,6.63
2022-11-12T19:38:17.689Z,7.70
2022-11-12T19:48:40.976Z,7.43
2022-11-12T19:59:02.968Z,8.27
2022-11-12T20:09:26.021Z,7.20
2022-11-12T20:19:47.699Z,4.30
2022-11-12T20:30:11.989Z,3.37
2022-11-12T20:40:34.133Z,3.53
2022-11-12T20:51:22.544Z,3.97
2022-11-12T21:01:45.975Z,3.60
2022-11-12T21:12:09.111Z,3.10
2022-11-12T21:22:30.693Z,3.43
2022-11-12T21:32:53.631Z,3.23
2022-11-12T21:43:15.613Z,3.87
2022-11-12T21:53:39.518Z,3.67
2022-11-12T22:04:05.122Z,4.37
2022-11-12T22:14:28.413Z,4.43
2022-11-12T22:24:50.187Z,4.60
2022-11-12T22:35:13.401Z,4.80
2022-11-12T22:45:36.253Z,4.57
2022-11-12T22:56:04.145Z,3.93
2022-11-12T23:06:26.956Z,4.27
2022-11-12T23:16:50.050Z,5.07
2022-11-12T23:27:11.707Z,5.03
2022-11-12T23:37:34.870Z,6.60
2022-11-12T23:47:57.325Z,6.33
2022-11-12T23:58:20.253Z,6.17
